Time;durP1;ratioP1;P1;durP2;ratioP2;P2;SDS_P1;SDS_P2;PMS_P1;PMS_P2;Temp;Humidity;BMP_temperature;BMP_pressure;BME280_temperature;BME280_humidity;BME280_pressure;Samples;Min_cycle;Max_cycle;Signal;HPM_P1;HPM_P2
2023/01/20 00:01:10;;;;;;;54.47;20.30;;;-0.20;99.90;;;;;;4437385;28;658634;-73
2023/01/20 00:03:58;;;;;;;46.73;19.77;;;-0.20;99.90;;;;;;4419326;28;658037;-72
2023/01/20 00:06:45;;;;;;;52.47;19.70;;;-0.30;99.90;;;;;;4422821;28;657432;-72
2023/01/20 00:09:32;;;;;;;50.37;19.87;;;-0.20;99.90;;;;;;4444867;28;657551;-72
2023/01/20 00:12:20;;;;;;;49.67;19.07;;;-0.20;99.90;;;;;;4434954;28;657959;-73
2023/01/20 00:15:09;;;;;;;52.97;20.80;;;-0.20;99.90;;;;;;4441702;28;658914;-73
2023/01/20 00:17:58;;;;;;;52.20;20.33;;;-0.20;99.90;;;;;;4419810;28;658062;-73
2023/01/20 00:20:45;;;;;;;54.60;20.47;;;-0.20;99.90;;;;;;4428783;28;658174;-73
2023/01/20 00:23:32;;;;;;;45.07;19.60;;;-0.20;99.90;;;;;;4451323;28;657678;-72
2023/01/20 00:26:22;;;;;;;47.03;19.50;;;-0.20;99.90;;;;;;4436906;28;657633;-73
2023/01/20 00:29:09;;;;;;;50.53;20.73;;;-0.10;99.90;;;;;;4441461;28;657544;-72
2023/01/20 00:31:56;;;;;;;54.27;21.27;;;-0.10;99.90;;;;;;4416018;28;657487;-72
2023/01/20 00:34:45;;;;;;;52.17;21.17;;;-0.10;99.90;;;;;;4434252;28;658416;-72
2023/01/20 00:37:33;;;;;;;55.00;21.40;;;0.00;99.90;;;;;;4410248;28;658382;-72
2023/01/20 00:40:20;;;;;;;58.27;21.80;;;-0.10;99.90;;;;;;4421572;28;656370;-73
2023/01/20 00:43:07;;;;;;;51.33;20.17;;;-0.10;99.90;;;;;;4443009;28;658338;-72
2023/01/20 00:45:55;;;;;;;53.13;21.00;;;-0.10;99.90;;;;;;4433319;28;658449;-73
2023/01/20 00:48:42;;;;;;;54.10;21.33;;;-0.10;99.90;;;;;;4435980;28;658188;-73
2023/01/20 00:51:32;;;;;;;52.77;21.83;;;-0.10;99.90;;;;;;4436482;28;658118;-73
2023/01/20 00:54:19;;;;;;;52.43;21.03;;;-0.10;99.90;;;;;;4447083;28;656763;-72
2023/01/20 00:57:06;;;;;;;53.63;21.57;;;-0.20;99.90;;;;;;4421046;28;657726;-72
2023/01/20 00:59:53;;;;;;;57.10;21.17;;;-0.10;99.90;;;;;;4442663;28;658362;-72
2023/01/20 01:02:41;;;;;;;54.73;21.23;;;-0.20;99.90;;;;;;4418491;28;657942;-73
2023/01/20 01:05:28;;;;;;;55.33;21.10;;;-0.20;99.90;;;;;;4444932;28;657971;-72
2023/01/20 01:08:17;;;;;;;58.87;21.67;;;-0.20;99.90;;;;;;4418752;28;657521;-73
2023/01/20 01:11:04;;;;;;;66.17;21.27;;;-0.30;99.90;;;;;;4447405;28;657114;-72
2023/01/20 01:13:52;;;;;;;55.40;20.97;;;-0.30;99.90;;;;;;4413473;28;657823;-73
2023/01/20 01:16:39;;;;;;;58.33;21.13;;;-0.30;99.90;;;;;;4433585;28;657687;-72
2023/01/20 01:19:26;;;;;;;51.27;20.53;;;-0.20;99.90;;;;;;4422699;28;657572;-72
2023/01/20 01:22:13;;;;;;;55.70;21.20;;;-0.30;99.90;;;;;;4439682;28;658264;-73
2023/01/20 01:25:02;;;;;;;55.77;20.30;;;-0.30;99.90;;;;;;4421936;28;658182;-72
2023/01/20 01:27:49;;;;;;;57.83;20.30;;;-0.30;99.90;;;;;;4427935;28;657981;-73
2023/01/20 01:30:36;;;;;;;47.57;19.10;;;-0.40;99.90;;;;;;4415387;28;659042;-73
2023/01/20 01:33:24;;;;;;;51.57;19.37;;;-0.40;99.90;;;;;;4438039;28;657671;-72
2023/01/20 01:36:13;;;;;;;55.47;21.13;;;-0.40;99.90;;;;;;4420626;28;657284;-72
2023/01/20 01:39:00;;;;;;;52.67;20.37;;;-0.40;99.90;;;;;;4433844;28;657797;-73
2023/01/20 01:41:49;;;;;;;50.37;20.13;;;-0.40;99.90;;;;;;4442849;28;658302;-72
2023/01/20 01:44:36;;;;;;;51.57;19.00;;;-0.40;99.90;;;;;;4422190;28;658327;-73
2023/01/20 01:47:24;;;;;;;42.87;17.87;;;-0.40;99.90;;;;;;4439904;28;658312;-72
2023/01/20 01:50:17;;;;;;;44.13;18.33;;;-0.40;99.90;;;;;;4427568;28;657450;-73
2023/01/20 01:53:05;;;;;;;48.58;18.50;;;-0.40;99.90;;;;;;4410141;28;657625;-73
2023/01/20 01:55:55;;;;;;;49.50;18.30;;;-0.50;99.90;;;;;;4434880;28;658085;-73
2023/01/20 01:58:46;;;;;;;54.40;18.40;;;-0.60;99.90;;;;;;4417429;28;658408;-73
2023/01/20 02:01:33;;;;;;;41.57;16.67;;;-0.60;99.90;;;;;;4420607;28;657640;-72
2023/01/20 02:04:22;;;;;;;48.92;17.63;;;-0.70;99.90;;;;;;4425562;28;657847;-73
2023/01/20 02:07:10;;;;;;;45.17;17.90;;;-0.80;99.90;;;;;;4436720;28;658124;-72
2023/01/20 02:09:57;;;;;;;43.93;18.07;;;-0.90;99.90;;;;;;4422188;28;658008;-73
2023/01/20 02:12:48;;;;;;;45.87;17.50;;;-1.00;99.90;;;;;;4438304;28;657514;-72
2023/01/20 02:15:40;;;;;;;46.73;17.67;;;-0.90;99.90;;;;;;4406882;28;657895;-72
2023/01/20 02:18:35;;;;;;;45.13;17.03;;;-1.00;99.90;;;;;;4420640;28;658957;-72
2023/01/20 02:21:54;;;;;;;49.25;17.65;;;-1.00;99.90;;;;;;4389289;28;658190;-72
2023/01/20 02:25:04;;;;;;;47.22;17.50;;;-1.00;99.90;;;;;;4421713;28;657780;-73
2023/01/20 02:28:09;;;;;;;46.60;17.57;;;-1.00;99.90;;;;;;4403302;28;658157;-73
2023/01/20 02:31:21;;;;;;;50.23;18.47;;;-0.90;99.90;;;;;;4427680;28;657665;-73
2023/01/20 02:34:11;;;;;;;47.60;17.27;;;-1.00;99.90;;;;;;4416078;28;658655;-73
2023/01/20 02:37:00;;;;;;;48.83;18.67;;;-1.10;99.90;;;;;;4419639;28;658032;-72
2023/01/20 02:39:52;;;;;;;54.27;18.73;;;-1.10;99.90;;;;;;4419894;28;657635;-72
2023/01/20 02:42:42;;;;;;;50.70;18.83;;;-1.10;99.90;;;;;;4421073;28;657439;-73
2023/01/20 02:45:33;;;;;;;48.00;17.83;;;-1.10;99.90;;;;;;4420268;28;657609;-73
2023/01/20 02:48:23;;;;;;;45.40;17.95;;;-1.20;99.90;;;;;;4394838;28;658434;-73
2023/01/20 02:51:13;;;;;;;47.97;18.20;;;-1.20;99.90;;;;;;4431504;28;658058;-73
2023/01/20 02:54:01;;;;;;;45.53;18.05;;;-1.20;99.90;;;;;;4429863;28;657497;-73
2023/01/20 02:56:49;;;;;;;46.27;18.57;;;-1.20;99.90;;;;;;4435306;28;657591;-72
2023/01/20 02:59:37;;;;;;;43.13;17.50;;;-1.20;99.90;;;;;;4421743;28;658373;-73
2023/01/20 03:02:25;;;;;;;47.63;17.57;;;-1.20;99.90;;;;;;4438079;28;657802;-72
2023/01/20 03:05:15;;;;;;;41.57;17.43;;;-1.20;99.90;;;;;;4410132;28;658681;-73
2023/01/20 03:08:05;;;;;;;48.87;19.00;;;-1.30;99.90;;;;;;4414671;28;658584;-72
2023/01/20 03:10:53;;;;;;;49.83;18.77;;;-1.30;99.90;;;;;;4409661;28;658256;-73
2023/01/20 03:13:43;;;;;;;41.83;17.63;;;-1.30;99.90;;;;;;4425770;28;657119;-72
2023/01/20 03:16:31;;;;;;;44.13;17.37;;;-1.40;99.90;;;;;;4415456;28;658043;-72
2023/01/20 03:19:18;;;;;;;42.10;17.73;;;-1.40;99.90;;;;;;4434543;28;658546;-72
2023/01/20 03:22:05;;;;;;;50.77;18.27;;;-1.40;99.90;;;;;;4412638;28;657860;-72
2023/01/20 03:24:54;;;;;;;48.70;18.40;;;-1.40;99.90;;;;;;4431581;28;658381;-73
2023/01/20 03:27:41;;;;;;;46.67;16.57;;;-1.40;99.90;;;;;;4378566;28;657436;-73
2023/01/20 03:30:29;;;;;;;45.33;17.47;;;-1.40;99.90;;;;;;4342500;28;657749;-73
2023/01/20 03:33:16;;;;;;;45.58;17.95;;;-1.40;99.90;;;;;;4414727;28;658250;-72
2023/01/20 03:36:04;;;;;;;47.97;18.30;;;-1.40;99.90;;;;;;4427873;28;657825;-73
2023/01/20 03:38:51;;;;;;;48.40;17.90;;;-1.30;99.90;;;;;;4412048;28;658439;-72
2023/01/20 03:41:58;;;;;;;50.30;19.53;;;-1.30;99.90;;;;;;4437608;28;658242;-72
2023/01/20 03:44:53;;;;;;;45.60;18.20;;;-1.40;99.90;;;;;;4391117;28;658054;-73
2023/01/20 03:47:48;;;;;;;46.03;17.50;;;-1.40;99.90;;;;;;4397080;28;657705;-73
2023/01/20 03:50:37;;;;;;;44.22;17.75;;;-1.50;99.90;;;;;;4396377;28;657537;-73
2023/01/20 03:53:28;;;;;;;42.70;16.90;;;-1.60;99.90;;;;;;4436634;28;657457;-72
2023/01/20 03:56:18;;;;;;;48.23;19.10;;;-1.50;99.90;;;;;;4395872;28;657886;-73
2023/01/20 03:59:07;;;;;;;62.03;20.90;;;-1.50;99.90;;;;;;4431779;28;657947;-73
2023/01/20 04:01:54;;;;;;;45.30;17.80;;;-1.50;99.90;;;;;;4444013;28;657565;-73
2023/01/20 04:04:43;;;;;;;45.37;18.20;;;-1.60;99.90;;;;;;4426586;28;657418;-73
2023/01/20 04:07:30;;;;;;;43.60;17.90;;;-1.60;99.90;;;;;;4430640;28;658712;-73
2023/01/20 04:10:17;;;;;;;46.03;17.63;;;-1.70;99.90;;;;;;4439807;28;658699;-73
2023/01/20 04:13:05;;;;;;;45.23;17.70;;;-1.60;99.90;;;;;;4440653;28;657412;-73
2023/01/20 04:15:54;;;;;;;45.67;18.03;;;-1.60;99.90;;;;;;4443515;28;657668;-73
2023/01/20 04:18:42;;;;;;;39.77;16.80;;;-1.60;99.90;;;;;;4414077;28;658745;-73
2023/01/20 04:21:31;;;;;;;45.83;17.37;;;-1.60;99.90;;;;;;4436596;28;657862;-73
2023/01/20 04:24:21;;;;;;;46.27;18.23;;;-1.60;99.90;;;;;;4421233;28;658147;-72
2023/01/20 04:27:08;;;;;;;62.57;21.77;;;-1.50;99.90;;;;;;4418352;28;657898;-72
2023/01/20 04:29:56;;;;;;;51.23;18.90;;;-1.50;99.90;;;;;;4423834;28;658245;-73
2023/01/20 04:32:44;;;;;;;54.80;21.30;;;-1.50;99.90;;;;;;4433992;28;658220;-72
2023/01/20 04:35:31;;;;;;;63.70;22.23;;;-1.50;99.90;;;;;;4419312;28;657600;-72
2023/01/20 04:38:19;;;;;;;59.17;21.27;;;-1.50;99.90;;;;;;4441139;28;657341;-72
2023/01/20 04:41:06;;;;;;;61.60;21.10;;;-1.50;99.90;;;;;;4413657;28;657753;-73
2023/01/20 04:43:53;;;;;;;58.47;21.83;;;-1.50;99.90;;;;;;4433626;28;658087;-73
2023/01/20 04:46:41;;;;;;;61.07;21.10;;;-1.50;99.90;;;;;;4419186;28;657796;-73
2023/01/20 04:49:29;;;;;;;56.87;21.30;;;-1.50;99.90;;;;;;4439721;28;657165;-72
2023/01/20 04:52:16;;;;;;;63.13;21.77;;;-1.50;99.90;;;;;;4417658;28;657788;-73
2023/01/20 04:55:04;;;;;;;63.13;22.23;;;-1.50;99.90;;;;;;4433442;28;658903;-73
2023/01/20 04:57:51;;;;;;;62.70;21.90;;;-1.60;99.90;;;;;;4419061;28;658362;-73
2023/01/20 05:00:39;;;;;;;57.30;21.23;;;-1.50;99.90;;;;;;4443496;28;658294;-72
2023/01/20 05:03:26;;;;;;;54.47;20.23;;;-1.60;99.90;;;;;;4424271;28;658681;-73
2023/01/20 05:06:14;;;;;;;55.33;20.87;;;-1.60;99.90;;;;;;4445089;28;658627;-72
2023/01/20 05:09:02;;;;;;;63.33;20.53;;;-1.70;99.90;;;;;;4415856;28;657711;-73
2023/01/20 05:11:49;;;;;;;61.50;21.57;;;-1.80;99.90;;;;;;4442818;28;657257;-73
2023/01/20 05:14:36;;;;;;;55.23;20.87;;;-1.80;99.90;;;;;;4427121;28;657799;-72
2023/01/20 05:17:23;;;;;;;58.80;19.93;;;-1.80;99.90;;;;;;4437743;28;657833;-73
2023/01/20 05:20:11;;;;;;;62.07;21.37;;;-1.90;99.90;;;;;;4414576;28;657484;-73
2023/01/20 05:23:00;;;;;;;54.27;19.90;;;-2.00;99.90;;;;;;4432871;28;657474;-72
2023/01/20 05:25:50;;;;;;;61.87;20.63;;;-2.10;99.90;;;;;;4415256;28;658637;-73
2023/01/20 05:28:37;;;;;;;56.07;20.07;;;-2.20;99.90;;;;;;4418196;28;659056;-73
2023/01/20 05:31:24;;;;;;;51.40;19.90;;;-2.20;99.90;;;;;;4439809;28;657532;-73
2023/01/20 05:34:12;;;;;;;57.37;20.40;;;-2.30;99.90;;;;;;4418309;28;657922;-73
2023/01/20 05:36:59;;;;;;;56.83;20.67;;;-2.30;99.90;;;;;;4444246;28;657693;-73
2023/01/20 05:39:48;;;;;;;59.17;22.27;;;-2.50;99.90;;;;;;4420766;28;657465;-72
2023/01/20 05:42:35;;;;;;;67.47;22.83;;;-2.60;99.90;;;;;;4427160;28;657317;-73
2023/01/20 05:45:22;;;;;;;57.27;20.67;;;-2.70;99.90;;;;;;4443055;28;658512;-73
2023/01/20 05:48:10;;;;;;;198.30;38.37;;;-2.80;99.90;;;;;;4438602;28;657643;-73
2023/01/20 05:50:57;;;;;;;128.33;30.37;;;-2.90;99.90;;;;;;4440173;28;659665;-73
2023/01/20 05:53:45;;;;;;;145.93;32.23;;;-3.00;99.90;;;;;;4436184;28;659052;-74
2023/01/20 05:56:34;;;;;;;148.07;32.73;;;-3.10;99.90;;;;;;4437999;28;658333;-73
2023/01/20 05:59:23;;;;;;;136.87;32.13;;;-3.20;99.90;;;;;;4416452;28;658657;-73
2023/01/20 06:02:12;;;;;;;235.20;62.83;;;-3.40;99.90;;;;;;4425469;28;658267;-73
2023/01/20 06:05:00;;;;;;;172.10;45.73;;;-3.50;99.90;;;;;;4433947;28;658716;-73
2023/01/20 06:07:48;;;;;;;162.85;41.53;;;-3.50;99.90;;;;;;4415450;28;658938;-73
2023/01/20 06:10:35;;;;;;;100.63;32.07;;;-3.50;99.90;;;;;;4414533;28;658758;-73
2023/01/20 06:13:24;;;;;;;76.50;26.10;;;-3.50;99.90;;;;;;4441440;28;660210;-74
2023/01/20 06:16:11;;;;;;;130.43;43.83;;;-3.40;99.90;;;;;;4412809;28;657329;-73
2023/01/20 06:18:58;;;;;;;169.93;57.50;;;-3.40;99.90;;;;;;4430594;28;660013;-73
2023/01/20 06:21:47;;;;;;;161.33;49.87;;;-3.30;99.90;;;;;;4416205;28;659253;-73
2023/01/20 06:24:34;;;;;;;142.17;48.03;;;-3.20;99.90;;;;;;4443224;28;658849;-74
2023/01/20 06:27:21;;;;;;;136.87;45.37;;;-3.20;99.90;;;;;;4420564;28;658817;-73
2023/01/20 06:30:11;;;;;;;121.27;34.50;;;-3.10;99.90;;;;;;4429517;28;658880;-74
2023/01/20 06:32:59;;;;;;;111.33;36.27;;;-3.10;99.90;;;;;;4417023;28;659127;-73
2023/01/20 06:35:46;;;;;;;97.77;32.07;;;-3.10;99.90;;;;;;4418984;28;658752;-73
2023/01/20 06:38:34;;;;;;;126.10;41.90;;;-3.10;99.90;;;;;;4447300;28;658390;-74
2023/01/20 06:41:22;;;;;;;106.37;35.00;;;-3.00;99.90;;;;;;4417239;28;659365;-74
2023/01/20 06:44:09;;;;;;;80.20;26.50;;;-2.90;99.90;;;;;;4451440;28;658430;-74
2023/01/20 06:46:58;;;;;;;66.32;22.95;;;-2.80;99.90;;;;;;4419883;28;657294;-73
2023/01/20 06:49:45;;;;;;;153.03;36.63;;;-2.60;99.90;;;;;;4428739;28;657927;-74
2023/01/20 06:52:32;;;;;;;90.90;24.57;;;-2.50;99.90;;;;;;4442709;28;659787;-74
2023/01/20 06:55:20;;;;;;;64.63;20.53;;;-2.30;99.90;;;;;;4442011;28;657667;-74
2023/01/20 06:58:07;;;;;;;43.33;15.87;;;-2.20;99.90;;;;;;4445197;28;658958;-74
2023/01/20 07:00:55;;;;;;;43.40;15.13;;;-2.10;99.90;;;;;;4439890;28;657857;-74
2023/01/20 07:03:44;;;;;;;40.53;14.80;;;-2.00;99.90;;;;;;4433346;28;658320;-74
2023/01/20 07:06:32;;;;;;;49.30;16.70;;;-2.00;99.90;;;;;;4415536;28;657933;-74
2023/01/20 07:09:20;;;;;;;37.30;14.90;;;-2.00;99.90;;;;;;4433772;28;658004;-74
2023/01/20 07:12:07;;;;;;;42.57;16.03;;;-2.00;99.90;;;;;;4444347;28;658940;-74
2023/01/20 07:14:55;;;;;;;40.63;16.30;;;-2.00;99.90;;;;;;4436987;28;658149;-74
2023/01/20 07:17:42;;;;;;;43.13;15.47;;;-2.00;99.90;;;;;;4447415;28;657871;-74
2023/01/20 07:20:32;;;;;;;36.60;14.17;;;-2.00;99.90;;;;;;4438856;28;659503;-73
2023/01/20 07:23:19;;;;;;;36.37;13.20;;;-1.90;99.90;;;;;;4440709;28;657427;-74
2023/01/20 07:26:07;;;;;;;36.23;14.13;;;-1.80;99.90;;;;;;4420317;28;658072;-74
2023/01/20 07:28:54;;;;;;;33.63;12.30;;;-1.70;99.90;;;;;;4442105;28;657368;-74
2023/01/20 07:31:41;;;;;;;37.00;13.02;;;-1.70;99.90;;;;;;4422702;28;658402;-74
2023/01/20 07:34:28;;;;;;;32.80;12.70;;;-1.60;99.90;;;;;;4438443;28;658290;-74
2023/01/20 07:37:17;;;;;;;32.67;12.93;;;-1.50;99.90;;;;;;4411797;28;657748;-74
2023/01/20 07:40:05;;;;;;;35.00;12.60;;;-1.50;99.90;;;;;;4435398;28;657545;-74
2023/01/20 07:42:52;;;;;;;28.73;11.73;;;-1.40;99.90;;;;;;4414661;28;658876;-74
2023/01/20 07:45:40;;;;;;;31.37;11.30;;;-1.20;99.90;;;;;;4430268;28;657595;-74
2023/01/20 07:48:28;;;;;;;29.63;11.27;;;-1.20;99.90;;;;;;4437873;28;657731;-74
2023/01/20 07:51:15;;;;;;;35.67;12.80;;;-1.00;99.90;;;;;;4419900;28;657577;-74
2023/01/20 07:54:04;;;;;;;30.33;12.97;;;-0.90;99.90;;;;;;4438397;28;658168;-74
2023/01/20 07:56:51;;;;;;;37.50;16.15;;;-0.60;99.90;;;;;;4413482;28;657491;-73
2023/01/20 07:59:39;;;;;;;37.47;16.13;;;-0.50;99.90;;;;;;4440374;28;657942;-74
2023/01/20 08:02:26;;;;;;;29.23;13.17;;;-0.40;99.90;;;;;;4421922;28;657710;-74
2023/01/20 08:05:13;;;;;;;32.57;13.20;;;-0.40;99.90;;;;;;4437206;28;657990;-74
2023/01/20 08:08:00;;;;;;;30.92;13.07;;;-0.30;99.90;;;;;;4412317;28;657842;-74
2023/01/20 08:10:54;;;;;;;29.47;12.07;;;-0.20;99.90;;;;;;4438339;28;657964;-73
2023/01/20 08:13:42;;;;;;;34.47;12.53;;;-0.20;99.90;;;;;;4421064;28;657769;-74
2023/01/20 08:16:29;;;;;;;32.07;12.07;;;-0.20;99.90;;;;;;4445373;28;657563;-73
2023/01/20 08:19:16;;;;;;;28.70;12.77;;;-0.10;99.90;;;;;;4417057;28;658040;-74
2023/01/20 08:22:03;;;;;;;33.33;12.67;;;-0.10;99.90;;;;;;4433096;28;658166;-74
2023/01/20 08:24:50;;;;;;;48.13;18.47;;;-0.10;99.90;;;;;;4413916;28;658735;-74
2023/01/20 08:27:39;;;;;;;78.77;27.53;;;-0.10;99.90;;;;;;4435142;28;658645;-73
2023/01/20 08:30:26;;;;;;;66.73;23.97;;;0.00;99.90;;;;;;4415126;28;658650;-73
2023/01/20 08:33:14;;;;;;;58.93;22.70;;;0.00;99.90;;;;;;4437737;28;658662;-73
2023/01/20 08:36:06;;;;;;;59.53;21.50;;;0.00;99.90;;;;;;4409905;28;657515;-73
2023/01/20 08:38:54;;;;;;;45.13;16.27;;;0.00;99.90;;;;;;4415150;28;658522;-73
2023/01/20 08:41:42;;;;;;;31.70;13.03;;;0.00;99.90;;;;;;4410882;28;657837;-74
2023/01/20 08:44:31;;;;;;;30.43;11.60;;;0.00;99.90;;;;;;4432223;28;658187;-73
2023/01/20 08:47:18;;;;;;;31.93;13.00;;;0.10;99.90;;;;;;4411555;28;658611;-73
2023/01/20 08:50:06;;;;;;;30.38;12.32;;;0.20;99.90;;;;;;4413756;28;657727;-73
2023/01/20 08:52:53;;;;;;;27.83;11.20;;;0.30;99.90;;;;;;4444619;28;658248;-73
2023/01/20 08:55:41;;;;;;;31.90;12.57;;;0.20;99.90;;;;;;4420358;28;657631;-73
2023/01/20 08:58:28;;;;;;;29.73;11.63;;;0.20;99.90;;;;;;4443725;28;657767;-73
2023/01/20 09:01:17;;;;;;;32.30;11.73;;;0.30;99.90;;;;;;4418417;28;657611;-73
2023/01/20 09:04:05;;;;;;;35.33;12.77;;;0.40;99.90;;;;;;4438348;28;657585;-73
2023/01/20 09:06:52;;;;;;;44.33;16.47;;;0.40;99.90;;;;;;4411650;28;658544;-73
2023/01/20 09:09:40;;;;;;;48.00;17.30;;;0.40;99.90;;;;;;4431548;28;657677;-74
2023/01/20 09:12:27;;;;;;;65.57;20.83;;;0.40;99.90;;;;;;4431231;28;657146;-74
2023/01/20 09:15:15;;;;;;;54.47;20.00;;;0.40;99.90;;;;;;4438242;28;657271;-73
2023/01/20 09:18:03;;;;;;;58.27;19.70;;;0.40;99.90;;;;;;4403931;28;658872;-73
2023/01/20 09:20:51;;;;;;;55.80;19.47;;;0.30;99.90;;;;;;4407546;28;657669;-74
2023/01/20 09:23:39;;;;;;;48.40;17.40;;;0.50;99.90;;;;;;4427038;28;658341;-74
2023/01/20 09:26:27;;;;;;;66.40;23.77;;;0.50;99.90;;;;;;4399130;28;657635;-73
2023/01/20 09:29:15;;;;;;;60.23;21.50;;;0.60;99.90;;;;;;4383428;28;657080;-74
2023/01/20 09:32:03;;;;;;;58.97;19.23;;;0.70;99.90;;;;;;4370162;28;658362;-74
2023/01/20 09:34:52;;;;;;;48.58;18.70;;;0.70;99.90;;;;;;4357978;28;658245;-74
2023/01/20 09:44:08;;;;;;;52.83;21.33;;;0.70;99.90;;;;;;4388832;28;658040;-74
2023/01/20 09:47:20;;;;;;;50.30;18.67;;;0.70;99.90;;;;;;4389462;28;658247;-74
2023/01/20 09:53:44;;;;;;;55.70;21.07;;;0.70;99.90;;;;;;4411386;28;657867;-74
2023/01/20 09:56:31;;;;;;;63.60;23.63;;;0.70;99.90;;;;;;4380074;28;658327;-74
2023/01/20 09:59:20;;;;;;;59.60;22.83;;;0.70;99.90;;;;;;4443783;28;657943;-74
2023/01/20 10:02:12;;;;;;;58.40;24.07;;;0.70;99.90;;;;;;4417054;28;658148;-74
2023/01/20 10:05:00;;;;;;;58.07;22.63;;;0.70;99.90;;;;;;4411648;28;657566;-74
2023/01/20 10:07:54;;;;;;;53.63;20.17;;;0.70;99.90;;;;;;4409254;28;658116;-74
2023/01/20 10:10:45;;;;;;;52.73;20.07;;;0.60;99.90;;;;;;4418265;28;657662;-75
2023/01/20 10:13:34;;;;;;;64.00;24.87;;;0.70;99.90;;;;;;4408152;28;657693;-75
2023/01/20 10:16:27;;;;;;;56.90;20.33;;;0.80;99.90;;;;;;4416644;28;657781;-75
2023/01/20 10:19:16;;;;;;;56.63;19.87;;;0.90;99.90;;;;;;4427005;28;657549;-75
2023/01/20 10:22:07;;;;;;;46.43;19.23;;;0.80;99.90;;;;;;4411387;28;657764;-75
2023/01/20 10:24:59;;;;;;;73.77;24.27;;;0.90;99.90;;;;;;4420244;28;657855;-75
2023/01/20 10:27:50;;;;;;;52.13;21.48;;;0.90;99.90;;;;;;4389076;28;658386;-75
2023/01/20 10:30:37;;;;;;;53.73;20.13;;;0.80;99.90;;;;;;4416592;28;658441;-75
2023/01/20 10:33:27;;;;;;;52.90;19.27;;;0.80;99.90;;;;;;4441321;28;657251;-75
2023/01/20 10:36:16;;;;;;;51.60;19.87;;;0.90;99.90;;;;;;4411021;28;657254;-75
2023/01/20 10:39:05;;;;;;;50.30;19.50;;;1.00;99.90;;;;;;4423174;28;657608;-75
2023/01/20 10:41:57;;;;;;;43.65;18.85;;;0.90;99.90;;;;;;4413768;28;657858;-75
2023/01/20 10:44:44;;;;;;;44.30;17.83;;;0.90;99.90;;;;;;4418545;28;657184;-75
2023/01/20 10:47:38;;;;;;;47.80;18.37;;;1.00;99.90;;;;;;4418862;28;658144;-75
2023/01/20 10:50:34;;;;;;;37.60;15.23;;;1.10;99.90;;;;;;4420462;28;657580;-75
2023/01/20 10:53:32;;;;;;;39.87;16.53;;;1.30;99.90;;;;;;4420202;28;657504;-75
2023/01/20 10:56:44;;;;;;;36.73;15.57;;;1.40;99.90;;;;;;4438486;28;657530;-75
2023/01/20 10:59:34;;;;;;;32.00;12.90;;;1.30;99.90;;;;;;4423004;28;658209;-76
2023/01/20 11:02:24;;;;;;;34.87;14.90;;;1.10;99.90;;;;;;4414781;28;657833;-75
2023/01/20 11:05:16;;;;;;;35.93;14.23;;;1.20;99.90;;;;;;4411239;28;657966;-75
2023/01/20 11:08:03;;;;;;;34.58;14.82;;;1.10;99.90;;;;;;4417756;28;658353;-75
2023/01/20 11:10:54;;;;;;;34.97;15.30;;;1.00;99.90;;;;;;4419058;28;657330;-75
2023/01/20 11:13:41;;;;;;;38.33;14.97;;;1.00;99.90;;;;;;4414851;28;657609;-75
2023/01/20 11:16:30;;;;;;;34.20;13.73;;;0.90;99.90;;;;;;4437045;28;658959;-75
2023/01/20 11:19:17;;;;;;;35.97;15.13;;;0.80;99.90;;;;;;4410117;28;658355;-75
2023/01/20 11:22:11;;;;;;;37.50;16.07;;;0.90;99.90;;;;;;4434506;28;657101;-76
2023/01/20 11:24:58;;;;;;;36.77;14.77;;;0.90;99.90;;;;;;4409303;28;657913;-76
2023/01/20 11:27:46;;;;;;;39.03;15.83;;;1.00;99.90;;;;;;4421965;28;658037;-75
2023/01/20 11:30:33;;;;;;;38.10;16.00;;;1.00;99.90;;;;;;4441679;28;658327;-75
2023/01/20 11:33:23;;;;;;;37.23;14.57;;;1.00;99.90;;;;;;4412904;28;657832;-75
2023/01/20 11:36:17;;;;;;;39.17;14.47;;;1.10;99.90;;;;;;4415513;28;658195;-75
2023/01/20 11:39:06;;;;;;;39.13;14.73;;;1.20;99.90;;;;;;4412676;28;657822;-76
2023/01/20 11:42:09;;;;;;;30.47;13.80;;;1.30;99.90;;;;;;4409459;28;658177;-75
2023/01/20 11:44:58;;;;;;;33.47;13.00;;;1.40;99.90;;;;;;4405253;28;657860;-75
2023/01/20 11:47:45;;;;;;;32.30;13.53;;;1.50;99.90;;;;;;4411600;28;657583;-75
2023/01/20 11:50:38;;;;;;;31.63;12.83;;;1.40;99.90;;;;;;4433747;28;658497;-76
2023/01/20 11:53:26;;;;;;;34.57;15.27;;;1.20;99.90;;;;;;4390521;28;658295;-76
2023/01/20 11:56:17;;;;;;;39.57;15.27;;;1.40;99.90;;;;;;4431531;28;658603;-76
2023/01/20 11:59:04;;;;;;;39.43;15.70;;;1.60;99.90;;;;;;4410736;28;657504;-75
2023/01/20 12:01:55;;;;;;;41.30;14.73;;;1.50;99.90;;;;;;4408891;28;657840;-75
2023/01/20 12:05:05;;;;;;;43.50;16.70;;;1.40;99.90;;;;;;4407684;28;657882;-76
2023/01/20 12:07:54;;;;;;;35.53;14.57;;;1.30;99.90;;;;;;4404392;28;657673;-76
2023/01/20 12:10:41;;;;;;;42.50;17.00;;;1.30;99.90;;;;;;4407847;28;658024;-75
2023/01/20 12:13:30;;;;;;;39.40;15.63;;;1.20;99.90;;;;;;4427502;28;658174;-76
2023/01/20 12:16:17;;;;;;;42.27;16.93;;;1.20;99.90;;;;;;4415088;28;658263;-76
2023/01/20 12:19:06;;;;;;;36.08;15.05;;;1.20;99.90;;;;;;4438688;28;657360;-76
2023/01/20 12:21:53;;;;;;;42.97;15.87;;;1.20;99.90;;;;;;4381599;28;658153;-76
2023/01/20 12:27:54;;;;;;;43.23;16.63;;;1.30;99.90;;;;;;4349412;28;658613;-75
2023/01/20 12:30:47;;;;;;;47.20;19.07;;;1.10;99.90;;;;;;4377100;28;657560;-75
2023/01/20 12:33:36;;;;;;;44.50;17.37;;;1.10;99.90;;;;;;4376339;28;657602;-75
2023/01/20 12:36:32;;;;;;;66.80;20.37;;;1.10;99.90;;;;;;4374257;28;657824;-75
2023/01/20 12:39:30;;;;;;;50.03;19.73;;;1.10;99.90;;;;;;4379866;28;657506;-76
2023/01/20 12:42:45;;;;;;;72.03;25.15;;;1.00;99.90;;;;;;4383430;28;657227;-75
2023/01/20 12:45:43;;;;;;;62.53;23.07;;;1.00;99.90;;;;;;4373385;28;658013;-75
2023/01/20 12:48:36;;;;;;;89.33;29.47;;;1.00;99.90;;;;;;4359347;28;657659;-75
2023/01/20 12:51:30;;;;;;;51.80;18.17;;;0.90;99.90;;;;;;4370375;28;657920;-75
2023/01/20 12:54:35;;;;;;;82.30;23.33;;;0.70;99.90;;;;;;4374214;28;657663;-75
2023/01/20 12:57:30;;;;;;;64.70;23.23;;;0.70;99.90;;;;;;4372062;28;657877;-75
2023/01/20 13:01:09;;;;;;;51.97;19.47;;;0.70;99.90;;;;;;4371521;28;657670;-75
2023/01/20 13:04:15;;;;;;;59.77;21.17;;;0.70;99.90;;;;;;4373963;28;657873;-75
2023/01/20 13:07:10;;;;;;;62.17;22.40;;;0.60;99.90;;;;;;4369535;28;657850;-75
2023/01/20 13:10:09;;;;;;;80.87;26.37;;;0.50;99.90;;;;;;4377926;28;657885;-75
2023/01/20 13:13:00;;;;;;;75.80;23.13;;;0.50;99.90;;;;;;4349140;28;658086;-75
2023/01/20 13:15:49;;;;;;;44.73;17.13;;;0.40;99.90;;;;;;4373902;28;657776;-75
2023/01/20 13:18:43;;;;;;;43.63;16.60;;;0.40;99.90;;;;;;4382525;28;658032;-75
2023/01/20 13:21:31;;;;;;;38.00;15.03;;;0.40;99.90;;;;;;4381487;28;657833;-75
2023/01/20 13:24:27;;;;;;;49.03;16.30;;;0.40;99.90;;;;;;4427393;28;658427;-75
2023/01/20 13:27:16;;;;;;;42.57;15.37;;;0.40;99.90;;;;;;4412171;28;657848;-75
2023/01/20 13:30:03;;;;;;;35.97;13.97;;;0.40;99.90;;;;;;4428501;28;658840;-75
2023/01/20 13:32:51;;;;;;;52.97;19.97;;;0.40;99.90;;;;;;4403746;28;657778;-75
2023/01/20 13:35:46;;;;;;;49.07;18.63;;;0.20;99.90;;;;;;4418980;28;657542;-75
2023/01/20 13:38:38;;;;;;;47.07;17.23;;;0.30;99.90;;;;;;4394397;28;658326;-75
2023/01/20 13:41:47;;;;;;;45.50;17.70;;;0.30;99.90;;;;;;4383275;28;657815;-75
2023/01/20 13:44:34;;;;;;;49.43;19.30;;;0.30;99.90;;;;;;4398831;28;657672;-75
2023/01/20 13:48:01;;;;;;;59.50;21.97;;;0.30;99.90;;;;;;4404533;28;658256;-75
2023/01/20 13:50:52;;;;;;;48.77;17.33;;;0.30;99.90;;;;;;4407243;28;657692;-75
2023/01/20 13:53:39;;;;;;;54.20;20.57;;;0.20;99.90;;;;;;4399514;28;658738;-75
2023/01/20 13:56:27;;;;;;;51.97;16.83;;;0.20;99.90;;;;;;4395283;28;658114;-75
2023/01/20 13:59:15;;;;;;;46.30;17.73;;;0.10;99.90;;;;;;4417560;28;657878;-74
2023/01/20 14:02:15;;;;;;;48.50;17.57;;;0.10;99.90;;;;;;4417896;28;657714;-75
2023/01/20 14:05:03;;;;;;;46.67;16.90;;;0.10;99.90;;;;;;4403423;28;657632;-75
2023/01/20 14:07:52;;;;;;;50.70;17.65;;;0.10;99.90;;;;;;4400557;28;657895;-74
2023/01/20 14:10:39;;;;;;;47.40;17.23;;;0.10;99.90;;;;;;4416879;28;658106;-75
2023/01/20 14:13:26;;;;;;;43.83;16.10;;;0.10;99.90;;;;;;4390256;28;657906;-75
2023/01/20 14:16:20;;;;;;;46.57;17.97;;;0.00;99.90;;;;;;4413825;28;657430;-74
2023/01/20 14:19:18;;;;;;;52.50;17.83;;;0.00;99.90;;;;;;4395449;28;657743;-74
2023/01/20 14:22:17;;;;;;;49.13;16.97;;;0.00;99.90;;;;;;4405494;28;657773;-74
2023/01/20 14:25:19;;;;;;;51.17;18.70;;;0.00;99.90;;;;;;4414576;28;657653;-73
2023/01/20 14:28:18;;;;;;;55.50;17.63;;;-0.10;99.90;;;;;;4400520;28;659473;-74